Hialeah Gardens, Florida
Current Conditions -  °F | °C
As of 1:53 AM on Friday 28 Nov 2014 (Local Time) from KMIA Reporting Station
Clear Clear  
Wind Chill: 58°   Ceiling: Unl
Heat Index: 58°   Visibility: 10mi
Dew Point: 40°   Wind: 10mph
Humidity: 51%   Direction: 330°NNW
Pressure: 30.18"   Gusts: 16mph
Location:  25.8324°N, 80.2789°W
Report Text: KMIA 280653Z 33009G14KT 10SM CLR 14/04 A3018 RMK AO2 SLP218 T01440044
Loading
Personal Weather Stations






























Interactive Weather Map New forecast layout! Learn more

10-Day Weather Forecast

Advertisements
Track Severe Weather on mobile